sensor_id;sensor_type;location;lat;lon;timestamp;temperature;humidity
52725;DHT22;38621;52.830;6.914;2023-06-22T00:00:58;18.80;99.90
52725;DHT22;38621;52.830;6.914;2023-06-22T00:03:24;18.70;99.90
52725;DHT22;38621;52.830;6.914;2023-06-22T00:05:51;18.70;99.90
52725;DHT22;38621;52.830;6.914;2023-06-22T00:08:18;18.60;99.90
52725;DHT22;38621;52.830;6.914;2023-06-22T00:10:44;18.60;99.90
52725;DHT22;38621;52.830;6.914;2023-06-22T00:13:11;18.50;99.90
52725;DHT22;38621;52.830;6.914;2023-06-22T00:15:38;18.50;99.90
52725;DHT22;38621;52.830;6.914;2023-06-22T00:18:08;18.50;99.90
52725;DHT22;38621;52.830;6.914;2023-06-22T00:20:34;18.50;99.90
52725;DHT22;38621;52.830;6.914;2023-06-22T00:23:03;18.40;99.90
52725;DHT22;38621;52.830;6.914;2023-06-22T00:25:39;18.40;99.90
52725;DHT22;38621;52.830;6.914;2023-06-22T00:28:06;18.40;99.90
52725;DHT22;38621;52.830;6.914;2023-06-22T00:30:33;18.40;99.90
52725;DHT22;38621;52.830;6.914;2023-06-22T00:32:59;18.40;99.90
52725;DHT22;38621;52.830;6.914;2023-06-22T00:35:26;18.40;99.90
52725;DHT22;38621;52.830;6.914;2023-06-22T00:37:56;18.40;99.90
52725;DHT22;38621;52.830;6.914;2023-06-22T00:40:33;18.40;99.90
52725;DHT22;38621;52.830;6.914;2023-06-22T00:42:59;18.30;99.90
52725;DHT22;38621;52.830;6.914;2023-06-22T00:45:25;18.30;99.90
52725;DHT22;38621;52.830;6.914;2023-06-22T00:47:55;18.30;99.90
52725;DHT22;38621;52.830;6.914;2023-06-22T00:50:23;18.30;99.90
52725;DHT22;38621;52.830;6.914;2023-06-22T00:52:55;18.20;99.90
52725;DHT22;38621;52.830;6.914;2023-06-22T00:55:24;18.30;99.90
52725;DHT22;38621;52.830;6.914;2023-06-22T00:57:52;18.20;99.90
52725;DHT22;38621;52.830;6.914;2023-06-22T01:00:22;18.20;99.90
52725;DHT22;38621;52.830;6.914;2023-06-22T01:02:51;18.20;99.90
52725;DHT22;38621;52.830;6.914;2023-06-22T01:05:21;18.20;99.90
52725;DHT22;38621;52.830;6.914;2023-06-22T01:08:31;18.20;99.90
52725;DHT22;38621;52.830;6.914;2023-06-22T01:11:16;18.20;99.90
52725;DHT22;38621;52.830;6.914;2023-06-22T01:13:48;18.20;99.90
52725;DHT22;38621;52.830;6.914;2023-06-22T01:16:24;18.10;99.90
52725;DHT22;38621;52.830;6.914;2023-06-22T01:18:52;18.10;99.90
52725;DHT22;38621;52.830;6.914;2023-06-22T01:21:19;18.10;99.90
52725;DHT22;38621;52.830;6.914;2023-06-22T01:29:11;18.00;99.90
52725;DHT22;38621;52.830;6.914;2023-06-22T01:31:39;17.90;99.90
52725;DHT22;38621;52.830;6.914;2023-06-22T01:34:07;17.90;99.90
52725;DHT22;38621;52.830;6.914;2023-06-22T01:36:33;17.90;99.90
52725;DHT22;38621;52.830;6.914;2023-06-22T01:39:00;17.80;99.90
52725;DHT22;38621;52.830;6.914;2023-06-22T01:41:28;17.80;99.90
52725;DHT22;38621;52.830;6.914;2023-06-22T01:43:55;17.80;99.90
52725;DHT22;38621;52.830;6.914;2023-06-22T01:46:21;17.80;99.90
52725;DHT22;38621;52.830;6.914;2023-06-22T01:48:48;17.80;99.90
52725;DHT22;38621;52.830;6.914;2023-06-22T01:51:14;17.80;99.90
52725;DHT22;38621;52.830;6.914;2023-06-22T01:53:40;17.70;99.90
52725;DHT22;38621;52.830;6.914;2023-06-22T01:56:06;17.70;99.90
52725;DHT22;38621;52.830;6.914;2023-06-22T01:58:32;17.60;99.90
52725;DHT22;38621;52.830;6.914;2023-06-22T02:01:10;17.60;99.90
52725;DHT22;38621;52.830;6.914;2023-06-22T02:03:47;17.60;99.90
52725;DHT22;38621;52.830;6.914;2023-06-22T02:06:24;17.60;99.90
52725;DHT22;38621;52.830;6.914;2023-06-22T02:08:59;17.50;99.90
52725;DHT22;38621;52.830;6.914;2023-06-22T02:11:26;17.50;99.90
52725;DHT22;38621;52.830;6.914;2023-06-22T02:13:53;17.50;99.90
52725;DHT22;38621;52.830;6.914;2023-06-22T02:16:20;17.40;99.90
52725;DHT22;38621;52.830;6.914;2023-06-22T02:18:50;17.40;99.90
52725;DHT22;38621;52.830;6.914;2023-06-22T02:21:17;17.40;99.90
52725;DHT22;38621;52.830;6.914;2023-06-22T02:23:43;17.30;99.90
52725;DHT22;38621;52.830;6.914;2023-06-22T02:26:09;17.30;99.90
52725;DHT22;38621;52.830;6.914;2023-06-22T02:28:35;17.30;99.90
52725;DHT22;38621;52.830;6.914;2023-06-22T02:31:01;17.30;99.90
52725;DHT22;38621;52.830;6.914;2023-06-22T02:33:26;17.40;99.90
52725;DHT22;38621;52.830;6.914;2023-06-22T02:35:53;17.30;99.90
52725;DHT22;38621;52.830;6.914;2023-06-22T02:38:19;17.30;99.90
52725;DHT22;38621;52.830;6.914;2023-06-22T02:40:46;17.30;99.90
52725;DHT22;38621;52.830;6.914;2023-06-22T02:43:12;17.30;99.90
52725;DHT22;38621;52.830;6.914;2023-06-22T02:45:37;17.30;99.90
52725;DHT22;38621;52.830;6.914;2023-06-22T02:48:03;17.20;99.90
52725;DHT22;38621;52.830;6.914;2023-06-22T02:50:29;17.20;99.90
52725;DHT22;38621;52.830;6.914;2023-06-22T02:52:55;17.30;99.90
52725;DHT22;38621;52.830;6.914;2023-06-22T02:55:21;17.20;99.90
52725;DHT22;38621;52.830;6.914;2023-06-22T02:57:46;17.20;99.90
52725;DHT22;38621;52.830;6.914;2023-06-22T03:00:14;17.20;99.90
52725;DHT22;38621;52.830;6.914;2023-06-22T03:02:44;17.20;99.90
52725;DHT22;38621;52.830;6.914;2023-06-22T03:05:10;17.10;99.90
52725;DHT22;38621;52.830;6.914;2023-06-22T03:07:42;17.10;99.90
52725;DHT22;38621;52.830;6.914;2023-06-22T03:10:12;17.20;99.90
52725;DHT22;38621;52.830;6.914;2023-06-22T03:12:39;17.10;99.90
52725;DHT22;38621;52.830;6.914;2023-06-22T03:15:06;17.10;99.90
52725;DHT22;38621;52.830;6.914;2023-06-22T03:17:33;17.10;99.90
52725;DHT22;38621;52.830;6.914;2023-06-22T03:19:59;17.10;99.90
52725;DHT22;38621;52.830;6.914;2023-06-22T03:22:24;17.00;99.90
52725;DHT22;38621;52.830;6.914;2023-06-22T03:24:50;17.00;99.90
52725;DHT22;38621;52.830;6.914;2023-06-22T03:27:16;17.00;99.90
52725;DHT22;38621;52.830;6.914;2023-06-22T03:29:41;16.90;99.90
52725;DHT22;38621;52.830;6.914;2023-06-22T03:32:07;16.90;99.90
52725;DHT22;38621;52.830;6.914;2023-06-22T03:34:33;16.80;99.90
52725;DHT22;38621;52.830;6.914;2023-06-22T03:36:59;16.80;99.90
52725;DHT22;38621;52.830;6.914;2023-06-22T03:39:24;16.80;99.90
52725;DHT22;38621;52.830;6.914;2023-06-22T03:41:50;16.70;99.90
52725;DHT22;38621;52.830;6.914;2023-06-22T03:44:16;16.70;99.90
52725;DHT22;38621;52.830;6.914;2023-06-22T03:46:41;16.60;99.90
52725;DHT22;38621;52.830;6.914;2023-06-22T03:49:07;16.50;99.90
52725;DHT22;38621;52.830;6.914;2023-06-22T03:51:33;16.50;99.90
52725;DHT22;38621;52.830;6.914;2023-06-22T03:53:58;16.40;99.90
52725;DHT22;38621;52.830;6.914;2023-06-22T03:56:24;16.30;99.90
52725;DHT22;38621;52.830;6.914;2023-06-22T03:58:50;16.30;99.90
52725;DHT22;38621;52.830;6.914;2023-06-22T04:01:16;16.30;99.90
52725;DHT22;38621;52.830;6.914;2023-06-22T04:03:42;16.20;99.90
52725;DHT22;38621;52.830;6.914;2023-06-22T04:06:08;16.20;99.90
52725;DHT22;38621;52.830;6.914;2023-06-22T04:08:34;16.20;99.90
52725;DHT22;38621;52.830;6.914;2023-06-22T04:11:00;16.20;99.90
52725;DHT22;38621;52.830;6.914;2023-06-22T04:13:25;16.20;99.90
52725;DHT22;38621;52.830;6.914;2023-06-22T04:15:51;16.30;99.90
52725;DHT22;38621;52.830;6.914;2023-06-22T04:18:17;16.30;99.90
52725;DHT22;38621;52.830;6.914;2023-06-22T04:20:42;16.40;99.90
52725;DHT22;38621;52.830;6.914;2023-06-22T04:23:10;16.40;99.90
52725;DHT22;38621;52.830;6.914;2023-06-22T04:25:36;16.40;99.90
52725;DHT22;38621;52.830;6.914;2023-06-22T04:28:01;16.40;99.90
52725;DHT22;38621;52.830;6.914;2023-06-22T04:30:28;16.40;99.90
52725;DHT22;38621;52.830;6.914;2023-06-22T04:32:57;16.40;99.90
52725;DHT22;38621;52.830;6.914;2023-06-22T04:35:24;16.40;99.90
52725;DHT22;38621;52.830;6.914;2023-06-22T04:37:50;16.40;99.90
52725;DHT22;38621;52.830;6.914;2023-06-22T04:40:16;16.40;99.90
52725;DHT22;38621;52.830;6.914;2023-06-22T04:42:41;16.50;99.90
52725;DHT22;38621;52.830;6.914;2023-06-22T04:45:17;16.50;99.90
52725;DHT22;38621;52.830;6.914;2023-06-22T04:47:43;16.50;99.90
52725;DHT22;38621;52.830;6.914;2023-06-22T04:50:11;16.50;99.90
52725;DHT22;38621;52.830;6.914;2023-06-22T04:52:37;16.50;99.90
52725;DHT22;38621;52.830;6.914;2023-06-22T04:55:03;16.60;99.90
52725;DHT22;38621;52.830;6.914;2023-06-22T04:57:29;16.60;99.90
52725;DHT22;38621;52.830;6.914;2023-06-22T04:59:59;16.60;99.90
52725;DHT22;38621;52.830;6.914;2023-06-22T05:02:36;16.70;99.90
52725;DHT22;38621;52.830;6.914;2023-06-22T05:05:03;16.80;99.90
52725;DHT22;38621;52.830;6.914;2023-06-22T05:07:33;16.90;99.90
52725;DHT22;38621;52.830;6.914;2023-06-22T05:10:00;17.00;99.90
52725;DHT22;38621;52.830;6.914;2023-06-22T05:12:27;17.10;99.90
52725;DHT22;38621;52.830;6.914;2023-06-22T05:14:52;17.10;99.90
52725;DHT22;38621;52.830;6.914;2023-06-22T05:17:18;17.20;99.90
52725;DHT22;38621;52.830;6.914;2023-06-22T05:19:44;17.30;99.90
52725;DHT22;38621;52.830;6.914;2023-06-22T05:22:16;17.50;99.90
52725;DHT22;38621;52.830;6.914;2023-06-22T05:24:42;17.50;99.90
52725;DHT22;38621;52.830;6.914;2023-06-22T05:27:12;17.70;99.90
52725;DHT22;38621;52.830;6.914;2023-06-22T05:29:38;17.80;99.90
52725;DHT22;38621;52.830;6.914;2023-06-22T05:32:04;17.90;99.90
52725;DHT22;38621;52.830;6.914;2023-06-22T05:34:30;18.00;99.90
52725;DHT22;38621;52.830;6.914;2023-06-22T05:36:56;18.00;99.90
52725;DHT22;38621;52.830;6.914;2023-06-22T05:39:24;18.10;99.90
52725;DHT22;38621;52.830;6.914;2023-06-22T05:41:50;18.20;99.90
52725;DHT22;38621;52.830;6.914;2023-06-22T05:44:16;18.30;99.90
52725;DHT22;38621;52.830;6.914;2023-06-22T05:46:44;18.40;99.90
52725;DHT22;38621;52.830;6.914;2023-06-22T05:49:11;18.50;99.90
52725;DHT22;38621;52.830;6.914;2023-06-22T05:51:37;18.60;99.90
52725;DHT22;38621;52.830;6.914;2023-06-22T05:54:02;18.70;99.90
52725;DHT22;38621;52.830;6.914;2023-06-22T05:56:28;18.80;99.90
52725;DHT22;38621;52.830;6.914;2023-06-22T05:58:54;18.90;99.90
52725;DHT22;38621;52.830;6.914;2023-06-22T06:01:19;19.00;99.90
52725;DHT22;38621;52.830;6.914;2023-06-22T06:03:45;19.10;99.90
52725;DHT22;38621;52.830;6.914;2023-06-22T06:06:11;19.10;99.90
52725;DHT22;38621;52.830;6.914;2023-06-22T06:08:38;19.20;99.90
52725;DHT22;38621;52.830;6.914;2023-06-22T06:11:04;19.30;99.90
52725;DHT22;38621;52.830;6.914;2023-06-22T06:13:29;19.30;99.90
52725;DHT22;38621;52.830;6.914;2023-06-22T06:15:56;19.40;99.90
52725;DHT22;38621;52.830;6.914;2023-06-22T06:18:22;19.50;99.90
52725;DHT22;38621;52.830;6.914;2023-06-22T06:20:48;19.60;99.90
52725;DHT22;38621;52.830;6.914;2023-06-22T06:23:14;19.70;99.90
52725;DHT22;38621;52.830;6.914;2023-06-22T06:25:40;19.80;99.90
52725;DHT22;38621;52.830;6.914;2023-06-22T06:28:05;19.80;99.90
52725;DHT22;38621;52.830;6.914;2023-06-22T06:30:31;19.90;99.90
52725;DHT22;38621;52.830;6.914;2023-06-22T06:32:57;20.10;99.90
52725;DHT22;38621;52.830;6.914;2023-06-22T06:35:23;20.10;99.90
52725;DHT22;38621;52.830;6.914;2023-06-22T06:37:50;20.30;99.90
52725;DHT22;38621;52.830;6.914;2023-06-22T06:40:17;20.40;99.90
52725;DHT22;38621;52.830;6.914;2023-06-22T06:42:47;20.50;99.90
52725;DHT22;38621;52.830;6.914;2023-06-22T06:45:22;20.60;99.90
52725;DHT22;38621;52.830;6.914;2023-06-22T06:47:49;20.70;99.90
52725;DHT22;38621;52.830;6.914;2023-06-22T06:50:15;20.70;99.90
52725;DHT22;38621;52.830;6.914;2023-06-22T06:52:41;20.70;99.90
52725;DHT22;38621;52.830;6.914;2023-06-22T06:55:07;20.80;99.90
52725;DHT22;38621;52.830;6.914;2023-06-22T06:57:40;20.80;99.90
52725;DHT22;38621;52.830;6.914;2023-06-22T07:00:11;20.90;99.90
52725;DHT22;38621;52.830;6.914;2023-06-22T07:02:43;20.90;99.90
52725;DHT22;38621;52.830;6.914;2023-06-22T07:05:10;21.00;99.90
52725;DHT22;38621;52.830;6.914;2023-06-22T07:07:36;21.10;99.90
52725;DHT22;38621;52.830;6.914;2023-06-22T07:10:02;21.20;99.90
52725;DHT22;38621;52.830;6.914;2023-06-22T07:12:28;21.30;99.90
52725;DHT22;38621;52.830;6.914;2023-06-22T07:15:04;21.40;99.90
52725;DHT22;38621;52.830;6.914;2023-06-22T07:17:30;21.50;99.90
52725;DHT22;38621;52.830;6.914;2023-06-22T07:19:56;21.60;99.90
52725;DHT22;38621;52.830;6.914;2023-06-22T07:22:22;21.60;99.90
52725;DHT22;38621;52.830;6.914;2023-06-22T07:24:47;21.80;99.90
52725;DHT22;38621;52.830;6.914;2023-06-22T07:27:14;21.80;99.90
52725;DHT22;38621;52.830;6.914;2023-06-22T07:29:42;21.90;99.90
52725;DHT22;38621;52.830;6.914;2023-06-22T07:32:08;22.00;99.90
52725;DHT22;38621;52.830;6.914;2023-06-22T07:34:34;22.00;99.90
52725;DHT22;38621;52.830;6.914;2023-06-22T07:37:00;22.20;99.90
52725;DHT22;38621;52.830;6.914;2023-06-22T07:39:26;22.30;99.90
52725;DHT22;38621;52.830;6.914;2023-06-22T07:41:52;22.30;99.90
52725;DHT22;38621;52.830;6.914;2023-06-22T07:44:18;22.40;99.90
52725;DHT22;38621;52.830;6.914;2023-06-22T07:46:44;22.60;99.90
52725;DHT22;38621;52.830;6.914;2023-06-22T07:49:09;22.70;99.90
52725;DHT22;38621;52.830;6.914;2023-06-22T07:51:35;22.70;99.90
52725;DHT22;38621;52.830;6.914;2023-06-22T07:54:01;22.80;99.90
52725;DHT22;38621;52.830;6.914;2023-06-22T07:56:26;22.90;99.90
52725;DHT22;38621;52.830;6.914;2023-06-22T07:58:52;22.90;99.90
52725;DHT22;38621;52.830;6.914;2023-06-22T08:01:19;23.00;99.90
52725;DHT22;38621;52.830;6.914;2023-06-22T08:03:48;23.10;99.90
52725;DHT22;38621;52.830;6.914;2023-06-22T08:06:14;23.30;99.90
52725;DHT22;38621;52.830;6.914;2023-06-22T08:08:39;23.40;99.90
52725;DHT22;38621;52.830;6.914;2023-06-22T08:11:05;23.50;99.90
52725;DHT22;38621;52.830;6.914;2023-06-22T08:13:31;23.60;99.90
52725;DHT22;38621;52.830;6.914;2023-06-22T08:15:57;23.70;99.90
52725;DHT22;38621;52.830;6.914;2023-06-22T08:18:22;23.70;99.90
52725;DHT22;38621;52.830;6.914;2023-06-22T08:20:48;23.80;99.90
52725;DHT22;38621;52.830;6.914;2023-06-22T08:23:15;23.80;99.90
52725;DHT22;38621;52.830;6.914;2023-06-22T08:25:40;23.90;99.90
52725;DHT22;38621;52.830;6.914;2023-06-22T08:28:06;24.10;99.90
52725;DHT22;38621;52.830;6.914;2023-06-22T08:30:32;24.20;99.90
52725;DHT22;38621;52.830;6.914;2023-06-22T08:32:58;24.30;99.90
52725;DHT22;38621;52.830;6.914;2023-06-22T08:35:24;24.40;99.90
52725;DHT22;38621;52.830;6.914;2023-06-22T08:37:50;24.50;99.90
52725;DHT22;38621;52.830;6.914;2023-06-22T08:40:20;24.60;99.90
52725;DHT22;38621;52.830;6.914;2023-06-22T08:42:46;24.70;99.90
52725;DHT22;38621;52.830;6.914;2023-06-22T08:45:12;24.70;99.90
52725;DHT22;38621;52.830;6.914;2023-06-22T08:47:38;24.70;99.90
52725;DHT22;38621;52.830;6.914;2023-06-22T08:50:06;24.80;99.90
52725;DHT22;38621;52.830;6.914;2023-06-22T08:52:33;24.80;99.90
52725;DHT22;38621;52.830;6.914;2023-06-22T08:54:59;24.90;99.90
52725;DHT22;38621;52.830;6.914;2023-06-22T08:57:24;25.00;99.90
52725;DHT22;38621;52.830;6.914;2023-06-22T08:59:50;25.10;99.90
52725;DHT22;38621;52.830;6.914;2023-06-22T09:02:18;25.20;99.90
52725;DHT22;38621;52.830;6.914;2023-06-22T09:04:47;25.30;99.90
52725;DHT22;38621;52.830;6.914;2023-06-22T09:07:14;25.30;99.90
52725;DHT22;38621;52.830;6.914;2023-06-22T09:09:39;25.50;99.90
52725;DHT22;38621;52.830;6.914;2023-06-22T09:12:05;25.50;99.90
52725;DHT22;38621;52.830;6.914;2023-06-22T09:14:31;25.60;99.90
52725;DHT22;38621;52.830;6.914;2023-06-22T09:16:57;25.80;99.90
52725;DHT22;38621;52.830;6.914;2023-06-22T09:19:23;25.90;99.90
52725;DHT22;38621;52.830;6.914;2023-06-22T09:21:48;26.00;99.90
52725;DHT22;38621;52.830;6.914;2023-06-22T09:24:14;26.20;99.90
52725;DHT22;38621;52.830;6.914;2023-06-22T09:26:40;26.30;99.90
52725;DHT22;38621;52.830;6.914;2023-06-22T09:29:05;26.30;99.90
52725;DHT22;38621;52.830;6.914;2023-06-22T09:31:31;26.40;99.90
52725;DHT22;38621;52.830;6.914;2023-06-22T09:33:57;26.40;99.90
52725;DHT22;38621;52.830;6.914;2023-06-22T09:36:23;26.50;99.90
52725;DHT22;38621;52.830;6.914;2023-06-22T09:38:49;26.60;99.90
52725;DHT22;38621;52.830;6.914;2023-06-22T09:41:20;26.60;99.90
52725;DHT22;38621;52.830;6.914;2023-06-22T09:43:46;26.80;99.90
52725;DHT22;38621;52.830;6.914;2023-06-22T09:46:14;26.90;99.90
52725;DHT22;38621;52.830;6.914;2023-06-22T09:48:40;26.90;99.90
52725;DHT22;38621;52.830;6.914;2023-06-22T09:51:06;26.90;99.90
52725;DHT22;38621;52.830;6.914;2023-06-22T09:53:32;27.10;99.90
52725;DHT22;38621;52.830;6.914;2023-06-22T09:55:57;27.20;99.90
52725;DHT22;38621;52.830;6.914;2023-06-22T09:58:23;27.30;99.90
52725;DHT22;38621;52.830;6.914;2023-06-22T10:00:49;27.40;99.90
52725;DHT22;38621;52.830;6.914;2023-06-22T10:03:14;27.40;99.90
52725;DHT22;38621;52.830;6.914;2023-06-22T10:05:40;27.40;99.90
52725;DHT22;38621;52.830;6.914;2023-06-22T10:08:06;27.60;99.90
52725;DHT22;38621;52.830;6.914;2023-06-22T10:10:34;27.60;99.90
52725;DHT22;38621;52.830;6.914;2023-06-22T10:13:07;27.60;99.90
52725;DHT22;38621;52.830;6.914;2023-06-22T10:15:34;27.50;99.90
52725;DHT22;38621;52.830;6.914;2023-06-22T10:18:00;27.40;99.90
52725;DHT22;38621;52.830;6.914;2023-06-22T10:20:25;27.30;99.90
52725;DHT22;38621;52.830;6.914;2023-06-22T10:22:51;27.50;99.90
52725;DHT22;38621;52.830;6.914;2023-06-22T10:25:17;27.80;99.90
52725;DHT22;38621;52.830;6.914;2023-06-22T10:27:43;27.90;99.90
52725;DHT22;38621;52.830;6.914;2023-06-22T10:30:10;28.00;99.90
52725;DHT22;38621;52.830;6.914;2023-06-22T10:32:38;28.10;99.90
52725;DHT22;38621;52.830;6.914;2023-06-22T10:35:05;28.20;99.90
52725;DHT22;38621;52.830;6.914;2023-06-22T10:37:31;28.20;99.90
52725;DHT22;38621;52.830;6.914;2023-06-22T10:39:57;28.30;99.90
52725;DHT22;38621;52.830;6.914;2023-06-22T10:42:23;28.40;99.90
52725;DHT22;38621;52.830;6.914;2023-06-22T10:44:49;28.50;99.90
52725;DHT22;38621;52.830;6.914;2023-06-22T10:47:14;28.70;99.90
52725;DHT22;38621;52.830;6.914;2023-06-22T10:49:40;28.90;99.90
52725;DHT22;38621;52.830;6.914;2023-06-22T10:52:07;28.90;99.90
52725;DHT22;38621;52.830;6.914;2023-06-22T10:54:34;28.90;99.90
52725;DHT22;38621;52.830;6.914;2023-06-22T10:57:01;29.00;99.90
52725;DHT22;38621;52.830;6.914;2023-06-22T10:59:27;29.20;99.90
52725;DHT22;38621;52.830;6.914;2023-06-22T11:01:54;29.50;99.90
52725;DHT22;38621;52.830;6.914;2023-06-22T11:04:20;29.70;99.90
52725;DHT22;38621;52.830;6.914;2023-06-22T11:06:47;29.70;99.90
52725;DHT22;38621;52.830;6.914;2023-06-22T11:09:13;29.80;99.90
52725;DHT22;38621;52.830;6.914;2023-06-22T11:11:44;29.70;99.90
52725;DHT22;38621;52.830;6.914;2023-06-22T11:14:10;29.60;99.90
52725;DHT22;38621;52.830;6.914;2023-06-22T11:16:35;29.40;99.90
52725;DHT22;38621;52.830;6.914;2023-06-22T11:19:01;29.40;99.90
52725;DHT22;38621;52.830;6.914;2023-06-22T11:21:28;29.50;99.90
52725;DHT22;38621;52.830;6.914;2023-06-22T11:23:54;29.60;99.90
52725;DHT22;38621;52.830;6.914;2023-06-22T11:26:19;29.60;99.90
52725;DHT22;38621;52.830;6.914;2023-06-22T11:28:46;29.40;99.90
52725;DHT22;38621;52.830;6.914;2023-06-22T11:31:12;29.20;99.90
52725;DHT22;38621;52.830;6.914;2023-06-22T11:33:38;29.00;99.90
52725;DHT22;38621;52.830;6.914;2023-06-22T11:36:04;28.80;99.90
52725;DHT22;38621;52.830;6.914;2023-06-22T11:38:30;28.60;99.90
52725;DHT22;38621;52.830;6.914;2023-06-22T11:40:58;28.40;99.90
52725;DHT22;38621;52.830;6.914;2023-06-22T11:43:24;28.30;99.90
52725;DHT22;38621;52.830;6.914;2023-06-22T11:45:49;28.20;99.90
52725;DHT22;38621;52.830;6.914;2023-06-22T11:48:16;28.10;99.90
52725;DHT22;38621;52.830;6.914;2023-06-22T11:50:41;28.10;99.90
52725;DHT22;38621;52.830;6.914;2023-06-22T11:53:07;28.00;99.90
52725;DHT22;38621;52.830;6.914;2023-06-22T11:55:33;27.90;99.90
52725;DHT22;38621;52.830;6.914;2023-06-22T11:57:58;28.00;99.90
52725;DHT22;38621;52.830;6.914;2023-06-22T12:00:26;27.90;99.90
52725;DHT22;38621;52.830;6.914;2023-06-22T12:02:52;28.00;99.90
52725;DHT22;38621;52.830;6.914;2023-06-22T12:05:21;28.10;99.90
52725;DHT22;38621;52.830;6.914;2023-06-22T12:07:48;28.20;99.90
52725;DHT22;38621;52.830;6.914;2023-06-22T12:10:14;28.40;99.90
52725;DHT22;38621;52.830;6.914;2023-06-22T12:12:40;28.50;99.90
52725;DHT22;38621;52.830;6.914;2023-06-22T12:15:06;28.50;99.90
52725;DHT22;38621;52.830;6.914;2023-06-22T12:17:33;28.60;99.90
52725;DHT22;38621;52.830;6.914;2023-06-22T12:19:59;28.70;99.90
52725;DHT22;38621;52.830;6.914;2023-06-22T12:22:25;28.80;99.90
52725;DHT22;38621;52.830;6.914;2023-06-22T12:24:50;28.80;99.90
52725;DHT22;38621;52.830;6.914;2023-06-22T12:27:17;28.70;99.90
52725;DHT22;38621;52.830;6.914;2023-06-22T12:29:45;28.50;99.90
52725;DHT22;38621;52.830;6.914;2023-06-22T12:32:11;28.50;99.90
52725;DHT22;38621;52.830;6.914;2023-06-22T12:34:39;28.30;99.90
52725;DHT22;38621;52.830;6.914;2023-06-22T12:37:05;28.10;99.90
52725;DHT22;38621;52.830;6.914;2023-06-22T12:39:32;28.00;99.90
52725;DHT22;38621;52.830;6.914;2023-06-22T12:41:58;27.90;99.90
52725;DHT22;38621;52.830;6.914;2023-06-22T12:44:23;27.80;99.90
52725;DHT22;38621;52.830;6.914;2023-06-22T12:46:49;27.80;99.90
52725;DHT22;38621;52.830;6.914;2023-06-22T12:49:15;27.80;99.90
52725;DHT22;38621;52.830;6.914;2023-06-22T12:51:41;27.80;99.90
52725;DHT22;38621;52.830;6.914;2023-06-22T12:54:10;27.70;99.90
52725;DHT22;38621;52.830;6.914;2023-06-22T12:56:37;27.70;99.90
52725;DHT22;38621;52.830;6.914;2023-06-22T12:59:06;27.50;99.90
52725;DHT22;38621;52.830;6.914;2023-06-22T13:01:32;27.40;99.90
52725;DHT22;38621;52.830;6.914;2023-06-22T13:03:58;27.20;99.90
52725;DHT22;38621;52.830;6.914;2023-06-22T13:06:25;27.00;99.90
52725;DHT22;38621;52.830;6.914;2023-06-22T13:08:50;26.80;99.90
52725;DHT22;38621;52.830;6.914;2023-06-22T13:11:16;26.70;99.90
52725;DHT22;38621;52.830;6.914;2023-06-22T13:13:43;26.60;99.90
52725;DHT22;38621;52.830;6.914;2023-06-22T13:16:09;26.50;99.90
52725;DHT22;38621;52.830;6.914;2023-06-22T13:18:34;26.30;99.90
52725;DHT22;38621;52.830;6.914;2023-06-22T13:21:02;26.30;99.90
52725;DHT22;38621;52.830;6.914;2023-06-22T13:23:27;26.20;99.90
52725;DHT22;38621;52.830;6.914;2023-06-22T13:25:53;26.20;99.90
52725;DHT22;38621;52.830;6.914;2023-06-22T13:28:19;26.20;99.90
52725;DHT22;38621;52.830;6.914;2023-06-22T13:30:46;26.10;99.90
52725;DHT22;38621;52.830;6.914;2023-06-22T13:33:15;26.10;99.90
52725;DHT22;38621;52.830;6.914;2023-06-22T13:35:42;26.10;99.90
52725;DHT22;38621;52.830;6.914;2023-06-22T13:38:10;26.10;99.90
52725;DHT22;38621;52.830;6.914;2023-06-22T13:40:36;26.10;99.90
52725;DHT22;38621;52.830;6.914;2023-06-22T13:43:04;26.10;99.90
52725;DHT22;38621;52.830;6.914;2023-06-22T13:45:30;26.10;99.90
52725;DHT22;38621;52.830;6.914;2023-06-22T13:47:56;26.10;99.90
52725;DHT22;38621;52.830;6.914;2023-06-22T13:50:22;26.00;99.90
52725;DHT22;38621;52.830;6.914;2023-06-22T13:52:47;26.00;99.90
52725;DHT22;38621;52.830;6.914;2023-06-22T13:55:13;26.00;99.90
52725;DHT22;38621;52.830;6.914;2023-06-22T13:57:40;26.00;99.90
52725;DHT22;38621;52.830;6.914;2023-06-22T14:00:07;26.00;99.90
52725;DHT22;38621;52.830;6.914;2023-06-22T14:02:38;25.90;99.90
52725;DHT22;38621;52.830;6.914;2023-06-22T14:05:05;25.90;99.90
52725;DHT22;38621;52.830;6.914;2023-06-22T14:07:31;25.90;99.90
52725;DHT22;38621;52.830;6.914;2023-06-22T14:09:57;25.80;99.90
52725;DHT22;38621;52.830;6.914;2023-06-22T14:12:24;25.80;99.90
52725;DHT22;38621;52.830;6.914;2023-06-22T14:14:50;25.80;99.90
52725;DHT22;38621;52.830;6.914;2023-06-22T14:17:16;25.80;99.90
52725;DHT22;38621;52.830;6.914;2023-06-22T14:19:42;25.90;99.90
52725;DHT22;38621;52.830;6.914;2023-06-22T14:22:07;25.90;99.90
52725;DHT22;38621;52.830;6.914;2023-06-22T14:24:33;25.90;99.90
52725;DHT22;38621;52.830;6.914;2023-06-22T14:26:58;25.90;99.90
52725;DHT22;38621;52.830;6.914;2023-06-22T14:29:27;25.90;99.90
52725;DHT22;38621;52.830;6.914;2023-06-22T14:31:53;25.80;99.90
52725;DHT22;38621;52.830;6.914;2023-06-22T14:34:19;25.70;99.90
52725;DHT22;38621;52.830;6.914;2023-06-22T14:36:44;25.70;99.90
52725;DHT22;38621;52.830;6.914;2023-06-22T14:39:10;25.70;99.90
52725;DHT22;38621;52.830;6.914;2023-06-22T14:41:36;25.60;99.90
52725;DHT22;38621;52.830;6.914;2023-06-22T14:44:01;25.60;99.90
52725;DHT22;38621;52.830;6.914;2023-06-22T14:46:27;25.50;99.90
52725;DHT22;38621;52.830;6.914;2023-06-22T14:48:53;25.50;99.90
52725;DHT22;38621;52.830;6.914;2023-06-22T14:51:18;25.40;99.90
52725;DHT22;38621;52.830;6.914;2023-06-22T14:53:45;25.30;99.90
52725;DHT22;38621;52.830;6.914;2023-06-22T14:56:11;25.20;99.90
52725;DHT22;38621;52.830;6.914;2023-06-22T14:58:40;25.20;99.90
52725;DHT22;38621;52.830;6.914;2023-06-22T15:01:05;25.10;99.90
52725;DHT22;38621;52.830;6.914;2023-06-22T15:03:34;25.00;99.90
52725;DHT22;38621;52.830;6.914;2023-06-22T15:06:01;24.90;99.90
52725;DHT22;38621;52.830;6.914;2023-06-22T15:08:28;24.80;99.90
52725;DHT22;38621;52.830;6.914;2023-06-22T15:10:54;24.70;99.90
52725;DHT22;38621;52.830;6.914;2023-06-22T15:13:20;24.60;99.90
52725;DHT22;38621;52.830;6.914;2023-06-22T15:15:47;24.50;99.90
52725;DHT22;38621;52.830;6.914;2023-06-22T15:18:16;24.30;99.90
52725;DHT22;38621;52.830;6.914;2023-06-22T15:20:43;24.20;99.90
52725;DHT22;38621;52.830;6.914;2023-06-22T15:23:13;24.10;99.90
52725;DHT22;38621;52.830;6.914;2023-06-22T15:25:38;24.10;99.90
52725;DHT22;38621;52.830;6.914;2023-06-22T15:28:04;23.90;99.90
52725;DHT22;38621;52.830;6.914;2023-06-22T15:30:30;23.70;99.90
52725;DHT22;38621;52.830;6.914;2023-06-22T15:32:57;23.60;99.90